Latest Weather Observations for Applethorpe

IDN60801

Issued at 8:32 am EDT Friday 19 January 2018 (issued every 30 minutes, with the page automatically refreshed every 10 minutes)

About weather observations | Map of weather stations | Latest weather observations for NSW | Other Formats
Station Details ID: 041175 Name: APPLETHORPE Lat: -28.62 Lon: 151.95 Height: 871.6 m
Data from the previous 72 hours. | See also: Recent months at Applethorpe
Date/Time
EDT
Temp
°C
App
Temp
°C
Dew
Point
°C
Rel
Hum
%
Delta-T
°C
Wind Press
QNH
hPa
Press
MSL
hPa
Rain since
9am
mm
Dir  Spd
km/h
Gust
km/h
Spd
kts
Gust
kts
19/08:30am 18.4 17.2 9.5 56 4.9 SSW 6 6 3 3 1019.9 1015.0 0.0
19/08:00am 15.4 15.1 10.1 70 2.9 SW 2 6 1 3 1019.8 1014.9 0.0
19/07:30am 13.2 12.8 11.2 88 1.1 SW 4 6 2 3 1019.8 1014.9 0.0
19/07:00am 11.1 10.4 10.2 94 0.5 W 4 6 2 3 1019.4 1014.6 0.0
19/06:30am 9.7 9.6 9.5 99 0.1 CALM 0 2 0 1 1019.1 1014.3 0.0
19/06:00am 9.8 9.7 9.4 97 0.2 CALM 0 0 0 0 1018.9 1014.0 0.0
19/05:30am 9.7 8.8 9.3 97 0.2 NW 4 6 2 3 1019.0 1014.2 0.0
19/05:00am 9.9 9.9 9.7 99 0.1 CALM 0 0 0 0 1018.8 1013.9 0.0
19/04:30am 9.9 9.9 9.9 100 0.0 CALM 0 0 0 0 1018.9 1014.0 0.0
19/04:00am 10.2 10.2 9.8 97 0.2 CALM 0 0 0 0 1018.9 1014.0 0.0
19/03:30am 11.4 11.7 10.8 96 0.3 CALM 0 0 0 0 1019.1 1014.3 0.0
19/03:00am 10.6 10.8 10.4 99 0.1 CALM 0 2 0 1 1019.5 1014.7 0.0
19/02:30am 11.5 11.9 11.3 99 0.1 CALM 0 0 0 0 1019.9 1015.0 0.0
19/02:00am 12.4 12.9 11.7 95 0.4 CALM 0 0 0 0 1020.1 1015.3 0.0
19/01:30am 12.8 13.1 12.1 95 0.4 ESE 2 6 1 3 1020.2 1015.4 0.0
19/01:00am 12.7 12.8 11.6 93 0.6 ENE 2 4 1 2 1020.4 1015.6 0.0
19/12:30am 13.3 13.5 11.9 91 0.8 ENE 2 6 1 3 1020.9 1016.0 0.0
19/12:00am 13.9 14.1 11.9 88 1.1 NE 2 6 1 3 1021.1 1016.3 0.0
 
Date/Time
EDT
Temp
°C
App
Temp
°C
Dew
Point
°C
Rel
Hum
%
Delta-T
°C
Wind Press
QNH
hPa
Press
MSL
hPa
Rain since
9am
mm
Dir  Spd
km/h
Gust
km/h
Spd
kts
Gust
kts
18/11:30pm 15.5 15.4 12.2 81 1.9 ENE 4 6 2 3 1021.0 1016.1 0.0
18/11:00pm 16.2 16.0 11.8 75 2.5 ENE 4 7 2 4 1021.0 1016.1 0.0
18/10:30pm 17.0 16.3 11.3 69 3.2 ENE 6 9 3 5 1021.0 1016.1 0.0
18/10:00pm 17.4 16.9 10.8 65 3.7 E 4 7 2 4 1020.9 1016.0 0.0
18/09:30pm 18.1 17.6 10.6 61 4.2 E 4 7 2 4 1020.5 1015.7 0.0
18/09:00pm 18.8 18.3 10.6 59 4.6 ENE 4 6 2 3 1020.3 1015.5 0.0
18/08:30pm 19.6 18.9 10.1 54 5.3 ENE 4 7 2 4 1020.1 1015.3 0.0
18/08:00pm 21.0 20.2 9.7 48 6.3 E 4 7 2 4 1019.7 1014.8 0.0
18/07:30pm 22.8 21.0 7.8 38 8.2 E 7 15 4 8 1019.4 1014.6 0.0
18/07:00pm 24.0 21.7 5.9 31 9.6 E 7 13 4 7 1019.2 1014.4 0.0
18/06:30pm 24.9 22.9 7.1 32 9.7 E 7 19 4 10 1019.0 1014.2 0.0
18/06:00pm 25.6 23.6 8.7 34 9.5 E 9 13 5 7 1018.8 1013.9 0.0
18/05:30pm 26.5 24.9 10.3 36 9.4 E 9 20 5 11 1018.8 1013.9 0.0
18/05:00pm 26.6 24.5 9.7 34 9.7 ENE 11 19 6 10 1018.7 1013.8 0.0
18/04:30pm 27.0 24.9 9.8 34 9.9 NE 11 17 6 9 1018.9 1014.0 0.0
18/04:00pm 26.9 24.4 9.7 34 9.9 NNE 13 20 7 11 1019.1 1014.3 0.0
18/03:30pm 27.3 25.2 9.8 33 10.1 ENE 11 20 6 11 1019.4 1014.6 0.0
18/03:00pm 27.0 25.1 9.1 32 10.2 ENE 9 15 5 8 1019.7 1014.8 0.0
18/02:30pm 27.4 26.0 9.5 32 10.3 NE 7 13 4 7 1019.9 1015.0 0.0
18/02:00pm 26.9 24.8 8.4 31 10.4 ENE 9 15 5 8 1020.1 1015.3 0.0
18/01:30pm 27.1 25.4 8.5 31 10.5 E 7 15 4 8 1020.4 1015.6 0.0
18/01:00pm 26.7 24.1 3.1 21 12.1 SSE 6 15 3 8 1020.7 1015.9 0.0
18/12:30pm 25.5 23.7 5.6 28 10.6 WNW 4 28 2 15 1021.0 1016.1 0.0
18/12:00pm 24.7 23.4 7.6 33 9.4 WSW 4 6 2 3 1021.6 1016.8 0.0
18/11:30am 24.1 22.5 8.2 36 8.8 SSW 6 15 3 8 1021.8 1017.0 0.0
18/11:00am 23.3 22.3 8.7 39 8.1 WSW 4 7 2 4 1022.2 1017.4 0.0
18/10:30am 22.4 21.2 8.1 40 7.8 NE 4 11 2 6 1022.3 1017.5 0.0
18/10:00am 22.2 20.6 6.3 35 8.4 SSE 4 9 2 5 1022.4 1017.6 0.0
18/09:30am 21.4 20.2 8.2 42 7.2 E 4 7 2 4 1022.6 1017.8 0.0
18/09:00am 19.1 19.2 11.6 62 4.3 SSE 2 6 1 3 1022.5 1017.7 0.0
18/08:30am 16.5 16.8 12.3 76 2.4 NNE 2 4 1 2 1022.4 1017.6 0.0
18/08:00am 14.9 14.9 12.4 85 1.4 NE 4 6 2 3 1022.4 1017.6 0.0
18/07:30am 13.7 14.1 12.5 92 0.7 ENE 2 4 1 2 1022.2 1017.4 0.0
18/07:00am 11.9 12.3 11.4 97 0.3 CALM 0 0 0 0 1021.8 1017.0 0.0
18/06:30am 10.9 11.0 10.3 96 0.3 CALM 0 0 0 0 1021.4 1016.6 0.0
18/06:00am 11.6 11.9 11.0 96 0.3 CALM 0 2 0 1 1020.9 1016.0 0.0
18/05:30am 12.6 13.1 11.5 93 0.6 CALM 0 2 0 1 1020.6 1015.8 0.0
18/05:00am 13.3 13.1 11.9 91 0.8 E 4 11 2 6 1020.4 1015.6 0.0
18/04:30am 13.4 12.9 12.0 91 0.8 E 6 11 3 6 1020.4 1015.6 0.0
18/04:00am 13.6 13.0 11.8 89 1.0 E 6 11 3 6 1020.5 1015.7 0.0
18/03:30am 14.0 13.3 12.0 88 1.1 E 7 15 4 8 1020.6 1015.8 0.0
18/03:00am 14.4 13.8 12.3 87 1.2 ENE 7 15 4 8 1020.9 1016.0 0.0
18/02:30am 14.6 14.1 12.5 87 1.2 E 7 15 4 8 1021.0 1016.1 0.0
18/02:00am 14.6 14.1 12.5 87 1.2 ESE 7 17 4 9 1021.2 1016.4 0.0
18/01:30am 14.6 13.7 12.5 87 1.2 E 9 17 5 9 1021.4 1016.6 0.0
18/01:00am 14.7 13.4 12.4 86 1.3 E 11 20 6 11 1021.4 1016.6 0.0
18/12:30am 14.3 13.8 12.5 89 1.0 E 7 13 4 7 1021.6 1016.8 0.0
18/12:00am 13.7 13.3 12.3 91 0.8 ENE 6 9 3 5 1021.8 1017.0 0.0
 
Date/Time
EDT
Temp
°C
App
Temp
°C
Dew
Point
°C
Rel
Hum
%
Delta-T
°C
Wind Press
QNH
hPa
Press
MSL
hPa
Rain since
9am
mm
Dir  Spd
km/h
Gust
km/h
Spd
kts
Gust
kts
17/11:30pm 14.1 13.6 12.1 88 1.1 ENE 6 13 3 7 1021.8 1017.0 0.0
17/11:00pm 14.7 14.2 12.0 84 1.5 E 6 11 3 6 1021.7 1016.9 0.0
17/10:30pm 15.4 14.9 12.0 80 1.9 E 6 9 3 5 1021.5 1016.7 0.0
17/10:00pm 16.1 15.6 12.1 77 2.3 ENE 6 13 3 7 1021.3 1016.5 0.0
17/09:30pm 16.9 16.3 11.8 72 2.9 E 6 9 3 5 1021.0 1016.1 0.0
17/09:00pm 17.6 17.0 10.4 62 4.0 ENE 4 9 2 5 1020.5 1015.7 0.0
17/08:30pm 18.4 17.8 10.5 60 4.4 ENE 4 7 2 4 1020.1 1015.3 0.0
17/08:00pm 19.8 19.1 10.2 54 5.4 E 4 9 2 5 1019.7 1014.8 0.0
17/07:30pm 21.7 20.6 10.0 47 6.6 ENE 6 17 3 9 1019.1 1014.3 0.0
17/07:00pm 22.8 21.1 9.7 43 7.4 E 9 15 5 8 1018.7 1013.8 0.0
17/06:30pm 23.9 22.1 9.6 40 8.1 E 9 15 5 8 1018.1 1013.3 0.0
17/06:00pm 25.4 24.0 9.6 36 9.0 ENE 7 15 4 8 1017.7 1012.8 0.0
17/05:30pm 25.7 24.5 9.4 35 9.3 ENE 6 11 3 6 1017.5 1012.6 0.0
17/05:00pm 25.6 24.6 10.4 38 8.8 NE 6 13 3 7 1017.4 1012.5 0.0
17/04:30pm 26.0 24.9 10.5 37 9.0 SSE 7 20 4 11 1017.6 1012.7 0.0
17/04:00pm 26.0 21.9 -0.4 17 12.7 SSW 11 20 6 11 1017.7 1012.8 0.0
17/03:30pm 25.9 22.2 0.1 18 12.5 W 9 19 5 10 1018.1 1013.3 0.0
17/03:00pm 25.9 22.1 -1.1 17 12.8 SW 9 19 5 10 1018.2 1013.4 0.0
17/02:30pm 25.8 22.7 3.4 23 11.5 SSW 9 19 5 10 1018.5 1013.6 0.0
17/02:00pm 25.8 22.2 0.3 19 12.4 SSW 9 15 5 8 1018.6 1013.7 0.0
17/01:30pm 24.9 20.8 -0.2 19 12.0 S 11 22 6 12 1018.9 1014.0 0.0
17/01:00pm 24.8 21.3 1.5 21 11.5 SW 9 20 5 11 1019.0 1014.2 0.0
17/12:30pm 24.0 20.0 0.2 21 11.4 SW 11 20 6 11 1019.2 1014.4 0.0
17/12:00pm 22.8 19.5 -0.1 22 10.8 SW 7 15 4 8 1019.3 1014.5 0.0
17/11:30am 21.9 19.2 2.7 28 9.5 SSW 6 13 3 7 1019.8 1014.9 0.0
17/11:00am 20.8 18.1 2.6 30 8.9 SW 6 9 3 5 1020.1 1015.3 0.0
17/10:30am 20.6 18.3 4.7 35 8.1 SSE 6 13 3 7 1020.3 1015.5 0.0
17/10:00am 19.7 17.9 5.2 38 7.4 SSE 4 7 2 4 1020.3 1015.5 0.0
17/09:30am 18.9 16.5 5.1 40 7.0 E 7 15 4 8 1020.4 1015.6 0.0
17/09:00am 18.2 16.0 6.4 46 6.1 ESE 7 15 4 8 1020.1 1015.3 0.0
17/08:30am 16.6 15.7 7.6 55 4.7 SSE 2 6 1 3 1020.0 1015.2 0.0
17/08:00am 14.0 14.2 10.5 79 1.9 CALM 0 4 0 2 1019.8 1014.9 0.0
17/07:30am 12.4 12.6 10.7 89 0.9 CALM 0 0 0 0 1019.4 1014.6 0.0
17/07:00am 11.2 11.4 10.5 95 0.4 CALM 0 0 0 0 1019.2 1014.4 0.0
17/06:30am 10.3 10.3 9.9 97 0.2 CALM 0 0 0 0 1018.8 1013.9 0.0
17/06:00am 10.7 10.8 10.1 96 0.3 CALM 0 0 0 0 1018.3 1013.5 0.0
17/05:30am 11.2 11.0 10.5 95 0.4 ESE 2 6 1 3 1018.0 1013.2 0.0
17/05:00am 11.1 10.8 10.2 94 0.5 SE 2 4 1 2 1018.1 1013.3 0.0
17/04:30am 12.1 11.6 10.6 90 0.8 SE 4 7 2 4 1017.9 1013.1 0.0
17/04:00am 12.6 11.5 10.8 89 1.0 ESE 7 17 4 9 1018.0 1013.2 0.0
17/03:30am 12.9 12.1 10.9 88 1.1 ESE 6 11 3 6 1018.1 1013.3 0.0
17/03:00am 13.1 12.0 10.7 85 1.3 E 7 15 4 8 1018.2 1013.4 0.0
17/02:30am 13.4 12.3 10.8 84 1.4 E 7 17 4 9 1018.6 1013.7 0.0
17/02:00am 13.5 11.7 11.0 85 1.4 E 11 20 6 11 1018.7 1013.8 0.0
17/01:30am 13.4 12.0 11.0 85 1.3 E 9 15 5 8 1018.7 1013.8 0.0
17/01:00am 13.3 11.9 10.9 85 1.3 E 9 19 5 10 1019.0 1014.2 0.0
17/12:30am 13.2 12.2 11.0 86 1.2 E 7 19 4 10 1019.3 1014.5 0.0
17/12:00am 13.3 12.6 11.3 88 1.1 ENE 6 15 3 8 1019.3 1014.5 0.0
 
Date/Time
EDT
Temp
°C
App
Temp
°C
Dew
Point
°C
Rel
Hum
%
Delta-T
°C
Wind Press
QNH
hPa
Press
MSL
hPa
Rain since
9am
mm
Dir  Spd
km/h
Gust
km/h
Spd
kts
Gust
kts
16/11:30pm 13.8 12.1 11.1 84 1.5 ENE 11 22 6 12 1019.3 1014.5 0.0
16/11:00pm 14.3 13.1 11.6 84 1.5 ENE 9 22 5 12 1019.2 1014.4 0.0
16/10:30pm 14.5 13.3 11.6 83 1.6 ENE 9 17 5 9 1019.3 1014.5 0.0
16/10:00pm 15.2 14.3 11.5 78 2.1 ENE 7 13 4 7 1019.0 1014.2 0.0
16/09:30pm 15.9 15.2 11.5 75 2.5 ENE 6 17 3 9 1018.8 1013.9 0.0
16/09:00pm 16.7 15.6 10.6 67 3.4 ENE 7 15 4 8 1018.6 1013.7 0.0
16/08:30pm 17.4 16.4 10.2 62 4.0 E 6 9 3 5 1018.2 1013.4 0.0
16/08:00pm 18.5 17.9 10.3 59 4.6 ENE 4 9 2 5 1017.9 1013.1 0.0
16/07:30pm 20.0 18.7 10.0 52 5.6 ENE 7 13 4 7 1017.5 1012.6 0.0
16/07:00pm 21.2 19.9 9.8 48 6.4 ENE 7 19 4 10 1017.0 1012.2 0.0
16/06:30pm 22.0 20.6 9.7 45 6.9 E 7 15 4 8 1016.4 1011.5 0.0
16/06:00pm 22.8 21.1 9.7 43 7.4 E 9 19 5 10 1016.1 1011.2 0.0
16/05:30pm 23.4 21.8 10.3 43 7.5 E 9 17 5 9 1016.1 1011.2 0.0
16/05:00pm 23.5 21.8 10.0 42 7.7 ENE 9 19 5 10 1016.0 1011.1 0.0
16/04:30pm 23.8 22.2 10.2 42 7.8 E 9 17 5 9 1016.1 1011.2 0.0
16/04:00pm 24.1 22.6 10.4 42 7.9 ENE 9 19 5 10 1016.2 1011.3 0.0
16/03:30pm 24.3 23.3 10.2 41 8.1 ENE 6 15 3 8 1016.4 1011.5 0.0
16/03:00pm 24.0 22.9 9.8 40 8.1 NE 6 15 3 8 1016.6 1011.7 0.0
16/02:30pm 23.9 22.7 10.3 42 7.8 NE 7 13 4 7 1016.9 1012.1 0.0
16/02:00pm 23.4 21.9 9.1 40 8.0 ENE 7 15 4 8 1017.3 1012.4 0.0
16/01:30pm 22.3 20.9 8.8 42 7.5 NNE 6 11 3 6 1017.6 1012.7 0.0
16/01:00pm 22.2 20.3 9.1 43 7.3 ENE 9 20 5 11 1017.8 1012.9 0.0
16/12:30pm 21.8 19.7 8.3 42 7.4 E 9 19 5 10 1018.2 1013.4 0.0
16/12:00pm 21.0 18.7 7.4 41 7.3 E 9 15 5 8 1018.5 1013.6 0.0
16/11:30am 21.4 19.6 8.0 42 7.3 ESE 7 15 4 8 1018.6 1013.7 0.0
16/11:00am 20.0 17.5 6.7 42 7.0 E 9 17 5 9 1018.7 1013.8 0.0
16/10:30am 19.7 16.7 5.8 40 7.2 ESE 11 22 6 12 1018.5 1013.6 0.0
16/10:00am 18.9 16.3 7.6 48 6.0 ESE 11 20 6 11 1018.3 1013.5 0.0

Other Formats:

Comma delimited format used in spreadsheet applications
http://www.bom.gov.au/fwo/IDN60801/IDN60801.94553.axf

JavaScript Object Notation format (JSON) in row-major order
http://www.bom.gov.au/fwo/IDN60801/IDN60801.94553.json